Time;durP1;ratioP1;P1;durP2;ratioP2;P2;SDS_P1;SDS_P2;PMS_P1;PMS_P2;Temp;Humidity;BMP_temperature;BMP_pressure;BME280_temperature;BME280_humidity;BME280_pressure;Samples;Min_cycle;Max_cycle;Signal;HPM_P1;HPM_P2
2022/12/15 00:40:05;;;;;;;13.30;7.18;;;;;;;-3.63;100.00;100558.56;5050855;28;20035;-68
2022/12/15 00:42:31;;;;;;;16.88;7.53;;;;;;;-3.62;100.00;100560.31;5050139;28;20028;-67
2022/12/15 00:44:57;;;;;;;17.17;8.73;;;;;;;-3.65;100.00;100558.47;5045646;28;20040;-68
2022/12/15 00:47:23;;;;;;;14.23;7.22;;;;;;;-3.66;100.00;100563.47;5044607;28;20033;-67
2022/12/15 01:22:58;;;;;;;15.98;7.43;;;;;;;-2.32;100.00;100576.59;4997013;28;20030;-68
2022/12/15 01:25:26;;;;;;;15.93;8.25;;;;;;;-2.35;100.00;100581.56;5032812;28;20049;-68
2022/12/15 01:27:51;;;;;;;13.27;7.55;;;;;;;-2.40;100.00;100582.16;5050793;28;20024;-68
2022/12/15 01:30:20;;;;;;;16.60;8.40;;;;;;;-2.44;100.00;100589.56;5055118;28;20036;-67
2022/12/15 01:32:46;;;;;;;15.73;7.95;;;;;;;-2.48;100.00;100592.75;5068420;28;20361;-68
2022/12/15 01:35:11;;;;;;;17.58;9.40;;;;;;;-2.52;100.00;100594.25;5051686;28;20083;-68
2022/12/15 01:37:37;;;;;;;14.63;8.32;;;;;;;-2.57;100.00;100593.03;5053946;28;20720;-68
2022/12/15 01:42:48;;;;;;;15.05;8.35;;;;;;;-2.57;100.00;100600.78;5043751;28;20393;-68
2022/12/15 01:45:23;;;;;;;22.80;10.73;;;;;;;-2.46;100.00;100599.78;5046091;28;20029;-67
2022/12/15 01:47:50;;;;;;;21.42;11.88;;;;;;;-2.46;100.00;100593.75;5055984;28;20032;-68
2022/12/15 01:50:16;;;;;;;21.15;11.82;;;;;;;-2.47;100.00;100603.16;5067291;28;20063;-67
2022/12/15 01:52:42;;;;;;;27.48;12.65;;;;;;;-2.49;100.00;100601.28;5051893;28;20029;-68
2022/12/15 01:55:08;;;;;;;23.55;12.85;;;;;;;-2.44;100.00;100593.06;5048439;28;20040;-67
2022/12/15 01:57:35;;;;;;;21.23;12.07;;;;;;;-2.46;100.00;100597.19;5051756;28;20549;-67
2022/12/15 02:00:02;;;;;;;27.15;13.32;;;;;;;-2.48;100.00;100605.63;5051030;28;20119;-68
2022/12/15 02:02:29;;;;;;;44.47;13.95;;;;;;;-2.49;100.00;100609.88;5038009;28;20127;-68
2022/12/15 02:04:58;;;;;;;30.80;13.32;;;;;;;-2.53;100.00;100607.91;5051143;28;20036;-68
2022/12/15 02:07:24;;;;;;;26.30;13.63;;;;;;;-2.60;100.00;100616.03;5041512;28;20020;-67
2022/12/15 02:09:52;;;;;;;29.70;14.38;;;;;;;-2.67;100.00;100618.97;5048285;28;20025;-67
2022/12/15 02:12:36;;;;;;;26.50;14.10;;;;;;;-2.71;100.00;100615.34;5043111;28;20095;-67
2022/12/15 02:15:26;;;;;;;24.55;14.30;;;;;;;-2.75;100.00;100609.06;5047794;28;20028;-67
2022/12/15 02:18:10;;;;;;;31.55;15.27;;;;;;;-2.74;100.00;100620.25;5050899;28;20028;-67
2022/12/15 02:20:49;;;;;;;31.83;15.23;;;;;;;-2.75;100.00;100621.06;5051889;28;20040;-68
2022/12/15 02:24:02;;;;;;;33.35;15.25;;;;;;;-2.77;100.00;100620.06;5042528;28;21260;-68
2022/12/15 02:26:51;;;;;;;36.10;14.35;;;;;;;-2.78;100.00;100620.84;4998967;28;20052;-69
2022/12/15 02:29:36;;;;;;;30.95;14.77;;;;;;;-2.84;100.00;100623.91;5055666;28;20107;-68
2022/12/15 02:32:15;;;;;;;36.95;15.75;;;;;;;-2.84;100.00;100618.75;5066295;28;20479;-67
2022/12/15 02:34:58;;;;;;;29.65;15.93;;;;;;;-2.84;100.00;100621.34;5048357;28;20028;-67
2022/12/15 02:37:30;;;;;;;37.97;16.40;;;;;;;-2.85;100.00;100619.53;5044701;28;20554;-67
2022/12/15 02:39:55;;;;;;;28.58;15.52;;;;;;;-2.90;100.00;100619.25;5046677;28;20036;-67
2022/12/15 02:42:22;;;;;;;35.58;16.92;;;;;;;-2.92;100.00;100618.25;5049520;28;20028;-66
2022/12/15 02:45:19;;;;;;;30.38;16.17;;;;;;;-2.89;100.00;100620.13;5040469;28;20036;-67
2022/12/15 02:48:06;;;;;;;32.30;16.88;;;;;;;-2.91;100.00;100619.16;5018314;28;20417;-68
2022/12/15 02:50:43;;;;;;;34.15;16.15;;;;;;;-2.92;100.00;100618.25;5043829;28;20036;-67
2022/12/15 02:54:10;;;;;;;32.05;16.23;;;;;;;-2.95;100.00;100630.03;5044855;28;20032;-68
2022/12/15 02:56:38;;;;;;;35.10;15.50;;;;;;;-2.93;100.00;100631.00;4964062;28;20047;-67
2022/12/15 02:59:13;;;;;;;37.22;17.67;;;;;;;-2.97;100.00;100631.59;5046951;28;20049;-66
2022/12/15 03:02:04;;;;;;;37.17;17.77;;;;;;;-2.98;100.00;100628.16;5042794;28;20025;-68
2022/12/15 03:04:32;;;;;;;33.15;16.38;;;;;;;-2.96;100.00;100628.25;5050021;28;20086;-68
2022/12/15 03:07:02;;;;;;;37.25;17.50;;;;;;;-2.92;100.00;100632.81;5042033;28;20022;-68
2022/12/15 03:09:28;;;;;;;41.00;18.55;;;;;;;-2.92;100.00;100627.66;5040073;28;20523;-67
2022/12/15 03:11:54;;;;;;;31.83;17.67;;;;;;;-2.94;100.00;100624.09;5039872;28;20033;-68
2022/12/15 03:14:19;;;;;;;40.80;17.00;;;;;;;-2.94;100.00;100624.09;5047203;28;20058;-67
2022/12/15 03:16:45;;;;;;;34.63;16.88;;;;;;;-2.91;100.00;100629.44;5045916;28;20025;-67
2022/12/15 03:19:10;;;;;;;40.83;17.13;;;;;;;-2.93;100.00;100626.78;5051170;28;20076;-67
2022/12/15 03:21:36;;;;;;;36.30;16.15;;;;;;;-2.93;100.00;100626.78;5043972;28;20096;-69
2022/12/15 03:24:01;;;;;;;39.30;16.40;;;;;;;-2.98;100.00;100628.16;5052636;28;20041;-66
2022/12/15 03:26:26;;;;;;;36.95;16.05;;;;;;;-2.98;100.00;100638.44;5054496;28;20040;-67
2022/12/15 03:28:52;;;;;;;37.88;16.77;;;;;;;-2.99;100.00;100635.78;5047780;28;20031;-67
2022/12/15 03:31:17;;;;;;;35.70;17.23;;;;;;;-2.88;100.00;100639.94;5055572;28;20056;-67
2022/12/15 03:33:42;;;;;;;36.85;16.65;;;;;;;-2.87;100.00;100641.75;5050385;28;20120;-67
2022/12/15 03:36:08;;;;;;;32.38;15.73;;;;;;;-2.84;100.00;100646.22;5046208;28;20651;-67
2022/12/15 03:38:33;;;;;;;30.73;15.88;;;;;;;-2.82;100.00;100642.94;5064908;28;20094;-68
2022/12/15 03:40:59;;;;;;;32.78;15.32;;;;;;;-2.83;100.00;100638.56;5063005;28;20024;-68
2022/12/15 03:43:24;;;;;;;30.75;16.08;;;;;;;-2.85;100.00;100642.72;5046790;28;20107;-67
2022/12/15 03:45:49;;;;;;;32.33;14.50;;;;;;;-2.87;100.00;100639.16;5053123;28;20029;-67
2022/12/15 03:48:15;;;;;;;38.15;16.38;;;;;;;-2.91;100.00;100643.19;5048476;28;20053;-65
2022/12/15 03:50:40;;;;;;;27.30;14.90;;;;;;;-2.99;100.00;100640.91;5053296;28;20025;-67
2022/12/15 03:53:06;;;;;;;28.85;15.60;;;;;;;-3.05;100.00;100637.13;5071391;28;20091;-68
2022/12/15 03:55:31;;;;;;;31.95;15.30;;;;;;;-3.11;100.00;100631.56;5039086;28;20488;-67
2022/12/15 03:57:57;;;;;;;38.17;17.17;;;;;;;-3.14;100.00;100636.50;5060869;28;20373;-67
2022/12/15 04:00:23;;;;;;;37.35;14.85;;;;;;;-3.18;100.00;100639.66;5046353;28;20102;-68
2022/12/15 04:02:49;;;;;;;32.35;15.80;;;;;;;-3.21;100.00;100647.19;5048284;28;20033;-66
2022/12/15 04:05:19;;;;;;;26.83;13.13;;;;;;;-3.17;100.00;100644.03;5052655;28;20484;-67
2022/12/15 04:07:44;;;;;;;29.55;15.50;;;;;;;-3.17;100.00;100651.75;5054415;28;20024;-66
2022/12/15 04:10:11;;;;;;;30.45;14.82;;;;;;;-3.21;100.00;100639.47;5049128;28;20032;-67
2022/12/15 04:12:38;;;;;;;32.55;17.10;;;;;;;-3.26;100.00;100639.13;5049931;28;20370;-67
2022/12/15 04:15:06;;;;;;;26.38;14.88;;;;;;;-3.33;100.00;100633.47;5049961;28;20534;-68
2022/12/15 04:17:32;;;;;;;24.40;12.77;;;;;;;-3.36;100.00;100628.09;5058260;28;20400;-67
2022/12/15 04:20:09;;;;;;;31.65;13.07;;;;;;;-3.35;100.00;100627.31;5055275;28;20081;-66
2022/12/15 04:22:43;;;;;;;36.60;14.70;;;;;;;-3.35;100.00;100632.47;5057878;28;20109;-67
2022/12/15 05:33:52;;;;;;;21.77;13.15;;;;;;;-3.62;100.00;100658.03;5039243;28;20123;-67
2022/12/15 05:36:18;;;;;;;31.23;14.82;;;;;;;-3.61;100.00;100657.25;5058086;28;20118;-67
2022/12/15 05:38:43;;;;;;;24.95;14.68;;;;;;;-3.62;100.00;100656.38;5061162;28;20533;-67
2022/12/15 05:41:08;;;;;;;30.00;13.40;;;;;;;-3.60;100.00;100664.19;5052390;28;20035;-67
2022/12/15 05:43:34;;;;;;;23.98;13.77;;;;;;;-3.61;100.00;100662.41;5052586;28;20027;-67
2022/12/15 05:46:03;;;;;;;28.15;13.85;;;;;;;-3.64;100.00;100665.66;5050375;28;20025;-67
2022/12/15 05:48:28;;;;;;;31.55;14.18;;;;;;;-3.67;100.00;100673.16;5047721;28;20043;-67
2022/12/15 05:50:54;;;;;;;35.22;14.60;;;;;;;-3.68;100.00;100675.63;5052405;28;20099;-68
2022/12/15 05:53:19;;;;;;;26.27;13.75;;;;;;;-3.68;100.00;100675.63;5054081;28;20127;-66
2022/12/15 05:55:44;;;;;;;25.45;12.75;;;;;;;-3.70;100.00;100669.47;5056102;28;20485;-67
2022/12/15 05:58:10;;;;;;;23.58;11.95;;;;;;;-3.69;100.00;100674.75;5046453;28;20469;-67
2022/12/15 06:00:35;;;;;;;41.55;15.75;;;;;;;-3.65;100.00;100675.84;5050083;28;20119;-67
2022/12/15 06:03:01;;;;;;;33.45;14.95;;;;;;;-3.63;100.00;100680.31;5048764;28;20094;-66
2022/12/15 06:05:27;;;;;;;26.85;14.50;;;;;;;-3.61;100.00;100683.91;5053290;28;20033;-67
2022/12/15 06:07:52;;;;;;;28.40;14.82;;;;;;;-3.54;100.00;100690.38;5047015;28;20021;-67
2022/12/15 06:10:17;;;;;;;24.88;14.18;;;;;;;-3.56;100.00;100690.22;5056502;28;20059;-67
2022/12/15 06:12:43;;;;;;;29.02;15.85;;;;;;;-3.51;100.00;100690.56;5052192;28;20457;-67
2022/12/15 06:15:09;;;;;;;27.23;14.10;;;;;;;-3.49;100.00;100696.69;5043211;28;20442;-67
2022/12/15 06:17:34;;;;;;;25.92;14.88;;;;;;;-3.48;100.00;100705.34;5041916;28;20461;-67
2022/12/15 06:19:59;;;;;;;26.60;13.65;;;;;;;-3.50;100.00;100701.75;5048257;28;20029;-69
2022/12/15 06:22:28;;;;;;;37.08;14.48;;;;;;;-3.49;100.00;100712.13;5047932;28;20036;-67
2022/12/15 06:24:53;;;;;;;24.55;14.18;;;;;;;-3.52;100.00;100695.63;5050717;28;20043;-67
2022/12/15 06:27:19;;;;;;;35.72;13.18;;;;;;;-3.52;100.00;100695.63;5046628;28;20464;-66
2022/12/15 06:29:44;;;;;;;24.73;12.70;;;;;;;-3.53;100.00;100697.28;5048612;28;20021;-66
2022/12/15 06:32:09;;;;;;;24.65;13.38;;;;;;;-3.53;100.00;100701.53;5050439;28;20484;-68
2022/12/15 06:34:35;;;;;;;24.45;12.45;;;;;;;-3.53;100.00;100697.28;5046990;28;20052;-68
2022/12/15 06:37:01;;;;;;;23.10;13.23;;;;;;;-3.47;100.00;100700.28;5042079;28;20036;-69
2022/12/15 06:39:26;;;;;;;27.48;13.02;;;;;;;-3.45;100.00;100693.56;5060870;28;20388;-67
2022/12/15 06:41:52;;;;;;;25.50;13.75;;;;;;;-3.45;100.00;100701.28;5046158;28;20056;-67
2022/12/15 06:44:17;;;;;;;27.05;14.45;;;;;;;-3.46;100.00;100691.78;5049395;28;20499;-68
2022/12/15 06:46:44;;;;;;;23.15;12.98;;;;;;;-3.47;100.00;100705.44;5049198;28;20087;-68
2022/12/15 06:49:10;;;;;;;34.00;13.43;;;;;;;-3.47;100.00;100701.94;5047588;28;20059;-68
2022/12/15 06:51:35;;;;;;;30.83;13.02;;;;;;;-3.48;100.00;100706.22;5048841;28;20028;-68
2022/12/15 06:54:01;;;;;;;26.63;13.70;;;;;;;-3.44;100.00;100704.75;5049475;28;20516;-67
2022/12/15 06:56:37;;;;;;;27.80;13.80;;;;;;;-3.37;100.00;100708.66;5051470;28;20112;-68
2022/12/15 06:59:06;;;;;;;32.40;15.52;;;;;;;-3.33;100.00;100710.66;5045492;28;20184;-69
2022/12/15 07:01:31;;;;;;;26.58;12.93;;;;;;;-3.28;100.00;100706.75;5049673;28;20424;-68
2022/12/15 07:03:58;;;;;;;36.30;18.33;;;;;;;-3.31;100.00;100698.78;5066687;28;20028;-68
2022/12/15 07:06:24;;;;;;;34.05;17.83;;;;;;;-3.35;100.00;100704.50;5054337;28;20033;-68
2022/12/15 07:08:55;;;;;;;38.88;16.77;;;;;;;-3.40;100.00;100709.34;5052174;28;20020;-69
2022/12/15 07:11:21;;;;;;;28.05;14.77;;;;;;;-3.46;100.00;100708.88;5050350;28;20036;-68
2022/12/15 07:13:52;;;;;;;28.20;15.35;;;;;;;-3.49;100.00;100722.41;5051796;28;20028;-68
2022/12/15 07:16:20;;;;;;;28.08;14.93;;;;;;;-3.48;100.00;100721.66;5040533;28;20033;-68
2022/12/15 07:18:46;;;;;;;26.52;14.15;;;;;;;-3.45;100.00;100718.41;5054273;28;20021;-66
2022/12/15 07:21:11;;;;;;;31.75;15.77;;;;;;;-3.46;100.00;100708.88;5055856;28;20086;-67
2022/12/15 07:23:37;;;;;;;28.20;14.77;;;;;;;-3.49;100.00;100714.72;5046010;28;20025;-68
2022/12/15 07:26:07;;;;;;;25.15;14.93;;;;;;;-3.52;100.00;100709.34;5043741;28;20033;-65
2022/12/15 07:28:34;;;;;;;26.58;14.98;;;;;;;-3.55;100.00;100704.00;5054145;28;20036;-66
2022/12/15 07:31:07;;;;;;;28.15;14.07;;;;;;;-3.53;100.00;100712.69;5052588;28;20040;-67
2022/12/15 07:33:36;;;;;;;24.40;14.20;;;;;;;-3.51;100.00;100715.38;5054300;28;20032;-67
2022/12/15 07:36:03;;;;;;;23.35;13.50;;;;;;;-3.54;100.00;100715.19;5048223;28;20551;-66
2022/12/15 07:38:29;;;;;;;25.60;12.73;;;;;;;-3.56;100.00;100717.63;5054046;28;20033;-66
2022/12/15 07:40:59;;;;;;;24.27;13.02;;;;;;;-3.57;100.00;100713.28;5049581;28;20028;-67
2022/12/15 07:43:25;;;;;;;34.72;16.10;;;;;;;-3.57;100.00;100721.00;5036124;28;20128;-66
2022/12/15 07:45:52;;;;;;;27.23;14.82;;;;;;;-3.59;100.00;100731.16;5053383;28;20044;-68
2022/12/15 07:48:18;;;;;;;33.10;14.57;;;;;;;-3.57;100.00;100726.13;5062956;28;20025;-68
2022/12/15 07:50:44;;;;;;;26.02;13.73;;;;;;;-3.56;100.00;100730.50;5042079;28;20480;-68
2022/12/15 07:53:09;;;;;;;31.55;14.70;;;;;;;-3.55;100.00;100737.44;5055605;28;20036;-67
2022/12/15 07:55:35;;;;;;;29.67;14.63;;;;;;;-3.52;100.00;100740.22;5052642;28;20029;-69
2022/12/15 07:58:00;;;;;;;27.65;14.55;;;;;;;-3.50;100.00;100748.03;5060473;28;20028;-68
2022/12/15 08:00:27;;;;;;;25.73;12.80;;;;;;;-3.42;100.00;100737.53;5051525;28;20041;-69
2022/12/15 08:02:52;;;;;;;23.38;12.65;;;;;;;-3.30;100.00;100741.75;5048262;28;20025;-68
2022/12/15 08:05:18;;;;;;;24.63;12.73;;;;;;;-3.21;100.00;100737.25;5045841;28;20025;-68
2022/12/15 08:07:43;;;;;;;32.10;14.80;;;;;;;-3.14;100.00;100733.41;5051004;28;20094;-67
2022/12/15 08:10:08;;;;;;;22.25;13.18;;;;;;;-3.12;100.00;100731.81;5054499;28;20080;-67
2022/12/15 08:12:34;;;;;;;28.38;14.95;;;;;;;-3.12;100.00;100732.75;5038713;28;20032;-68
2022/12/15 08:14:59;;;;;;;29.80;14.75;;;;;;;-3.10;100.00;100726.00;5065777;28;20028;-66
2022/12/15 08:17:24;;;;;;;29.20;14.52;;;;;;;-3.10;100.00;100746.59;5058424;28;20300;-67
2022/12/15 08:19:50;;;;;;;31.85;14.18;;;;;;;-3.11;100.00;100742.22;5068283;28;20029;-67
2022/12/15 08:22:16;;;;;;;29.88;14.68;;;;;;;-3.12;100.00;100743.03;5052813;28;20060;-67
2022/12/15 08:24:41;;;;;;;26.05;13.57;;;;;;;-3.08;100.00;100747.63;5057462;28;20055;-65
2022/12/15 08:27:07;;;;;;;24.77;13.05;;;;;;;-2.98;100.00;100745.69;5051244;28;20056;-65
2022/12/15 08:29:33;;;;;;;29.73;12.27;;;;;;;-2.84;100.00;100750.06;5043255;28;20028;-66
2022/12/15 08:31:58;;;;;;;18.48;11.55;;;;;;;-2.73;100.00;100754.31;5051869;28;20025;-66
2022/12/15 08:34:24;;;;;;;20.42;10.80;;;;;;;-2.61;100.00;100755.91;5048637;28;20028;-65
2022/12/15 08:36:49;;;;;;;26.73;12.65;;;;;;;-2.54;100.00;100755.53;5051444;28;20484;-65
2022/12/15 08:39:15;;;;;;;27.77;11.57;;;;;;;-2.52;100.00;100753.97;5045455;28;21333;-67
2022/12/15 08:41:41;;;;;;;21.77;11.00;;;;;;;-2.50;100.00;100752.38;5042665;28;20037;-68
2022/12/15 08:44:06;;;;;;;22.67;10.55;;;;;;;-2.33;100.00;100755.19;5046522;28;20071;-66
2022/12/15 08:46:33;;;;;;;28.38;12.32;;;;;;;-2.26;100.00;100758.28;5052046;28;20433;-67
2022/12/15 08:48:59;;;;;;;18.00;9.95;;;;;;;-2.14;100.00;100767.59;5053046;28;20484;-67
2022/12/15 08:51:27;;;;;;;27.90;10.90;;;;;;;-2.03;100.00;100772.69;5041079;28;20017;-66
2022/12/15 08:53:54;;;;;;;25.75;11.20;;;;;;;-1.93;100.00;100768.13;5052851;28;20031;-66
2022/12/15 08:56:22;;;;;;;16.23;10.05;;;;;;;-1.76;100.00;100770.13;5036862;28;20033;-66
2022/12/15 08:58:49;;;;;;;19.45;9.98;;;;;;;-1.71;100.00;100773.91;5050123;28;20037;-67
2022/12/15 09:01:19;;;;;;;21.48;10.35;;;;;;;-1.58;100.00;100777.28;5053693;28;20083;-67
2022/12/15 09:03:45;;;;;;;19.88;10.77;;;;;;;-1.53;100.00;100775.88;5051270;28;20087;-67
2022/12/15 09:06:20;;;;;;;24.45;11.75;;;;;;;-1.40;100.00;100774.97;5047489;28;20079;-68
2022/12/15 09:08:45;;;;;;;18.52;10.60;;;;;;;-1.25;100.00;100773.38;5040104;28;20500;-67
2022/12/15 09:11:11;;;;;;;32.30;12.05;;;;;;;-1.07;100.00;100778.78;5052387;28;20060;-67
2022/12/15 09:13:37;;;;;;;29.58;11.55;;;;;;;-0.85;100.00;100790.44;5063990;28;20036;-67
2022/12/15 09:16:11;;;;;;;23.77;11.35;;;;;;;-0.68;100.00;100784.63;5068631;28;20059;-66
2022/12/15 09:18:37;;;;;;;27.98;13.25;;;;;;;-0.60;100.00;100781.59;5045059;28;20496;-66
2022/12/15 09:21:05;;;;;;;20.73;12.25;;;;;;;-0.53;100.00;100776.00;5043403;28;20103;-66
2022/12/15 09:23:32;;;;;;;24.77;10.93;;;;;;;-0.45;100.00;100777.34;5044740;28;20124;-66
2022/12/15 09:26:06;;;;;;;22.05;12.20;;;;;;;-0.40;100.00;100782.81;5060491;28;20032;-67
2022/12/15 09:28:31;;;;;;;24.48;13.00;;;;;;;-0.33;100.00;100787.53;5059207;28;20428;-67
2022/12/15 09:31:11;;;;;;;18.02;11.77;;;;;;;-0.17;100.00;100789.34;5059969;28;20079;-67
2022/12/15 09:33:38;;;;;;;35.63;12.32;;;;;;;-0.11;100.00;100788.78;5063634;28;20119;-67
2022/12/15 09:36:04;;;;;;;24.88;12.13;;;;;;;0.04;100.00;100788.78;5054260;28;20044;-68
2022/12/15 09:38:34;;;;;;;24.20;12.75;;;;;;;0.20;100.00;100794.03;5058948;28;20099;-67
2022/12/15 09:41:12;;;;;;;29.58;14.80;;;;;;;0.37;100.00;100788.94;5060136;28;20060;-66
2022/12/15 09:43:45;;;;;;;21.02;12.15;;;;;;;0.62;100.00;100794.69;5058353;28;20120;-67
2022/12/15 09:46:48;;;;;;;30.52;13.75;;;;;;;1.00;100.00;100795.94;5056868;28;20021;-67
2022/12/15 09:49:20;;;;;;;25.92;12.45;;;;;;;1.38;100.00;100795.31;5035118;28;20081;-66
2022/12/15 09:51:52;;;;;;;25.05;13.07;;;;;;;1.61;100.00;100797.38;5057103;28;20431;-68
2022/12/15 09:54:20;;;;;;;23.45;12.45;;;;;;;1.79;100.00;100796.56;5055558;28;20048;-68
2022/12/15 09:56:52;;;;;;;23.05;10.18;;;;;;;1.94;100.00;100805.13;5057786;28;20088;-68
2022/12/15 09:59:20;;;;;;;17.75;9.38;;;;;;;2.03;100.00;100799.50;5052158;28;20140;-68
2022/12/15 10:02:03;;;;;;;17.52;8.35;;;;;;;2.04;100.00;100810.78;5062026;28;20064;-66
2022/12/15 10:04:43;;;;;;;15.17;7.70;;;;;;;1.81;100.00;100811.38;5061482;28;20461;-68
2022/12/15 10:07:35;;;;;;;14.35;8.30;;;;;;;1.69;100.00;100813.34;5050712;28;20032;-67
2022/12/15 10:10:19;;;;;;;12.68;7.47;;;;;;;1.77;100.00;100813.75;5054671;28;20031;-67
2022/12/15 10:12:46;;;;;;;17.17;7.57;;;;;;;2.02;100.00;100819.38;5032437;28;20029;-69
2022/12/15 10:15:26;;;;;;;12.32;8.32;;;;;;;2.55;100.00;100828.84;5031602;28;20025;-69
2022/12/15 10:18:03;;;;;;;15.20;7.57;;;;;;;3.13;100.00;100830.75;5050448;28;20024;-69
2022/12/15 10:20:30;;;;;;;16.75;7.47;;;;;;;3.57;100.00;100824.09;5054027;28;20025;-68
2022/12/15 10:23:04;;;;;;;13.93;7.47;;;;;;;3.85;100.00;100825.28;5053184;28;20115;-69
2022/12/15 10:25:30;;;;;;;;;;;;;;;4.27;100.00;100824.44;5049085;28;20104;-68
2022/12/15 10:28:01;;;;;;;13.77;7.13;;;;;;;4.64;100.00;100823.34;5050943;28;20016;-71
2022/12/15 10:30:26;;;;;;;18.58;6.88;;;;;;;4.89;100.00;100820.00;5056676;28;20464;-70
2022/12/15 10:33:12;;;;;;;14.50;7.00;;;;;;;5.13;100.00;100827.88;5049908;28;20075;-70
2022/12/15 10:35:40;;;;;;;11.68;6.25;;;;;;;5.51;100.00;100828.44;5048765;28;20037;-69
2022/12/15 10:38:37;;;;;;;13.98;6.35;;;;;;;5.50;100.00;100828.38;5050564;28;20495;-69
2022/12/15 10:41:08;;;;;;;8.07;5.15;;;;;;;4.89;100.00;100831.31;5052928;28;20021;-69
2022/12/15 10:43:39;;;;;;;7.68;4.97;;;;;;;5.20;100.00;100832.50;5056935;28;20025;-69
2022/12/15 10:46:07;;;;;;;12.57;5.00;;;;;;;5.28;100.00;100826.72;5050771;28;20029;-70
2022/12/15 10:48:33;;;;;;;6.68;4.38;;;;;;;4.99;100.00;100824.75;5051301;28;20078;-69
2022/12/15 10:51:17;;;;;;;12.98;4.78;;;;;;;4.85;100.00;100820.72;5050432;28;20028;-70
2022/12/15 10:54:10;;;;;;;9.55;5.35;;;;;;;4.50;100.00;100828.00;5046767;28;20021;-69
2022/12/15 10:56:57;;;;;;;12.80;5.50;;;;;;;4.08;100.00;100823.66;5053566;28;20025;-69
2022/12/15 10:59:22;;;;;;;11.77;5.90;;;;;;;3.71;100.00;100827.28;5056436;28;20484;-68
2022/12/15 11:01:48;;;;;;;10.75;6.20;;;;;;;3.54;100.00;100830.03;5048034;28;20025;-71
2022/12/15 11:04:30;;;;;;;12.57;7.00;;;;;;;3.67;100.00;100826.25;5050652;28;20033;-71
2022/12/15 11:07:00;;;;;;;14.88;7.80;;;;;;;3.98;100.00;100827.59;5048897;28;20086;-72
2022/12/15 11:09:34;;;;;;;20.80;9.50;;;;;;;4.19;100.00;100824.13;5051504;28;20488;-71
2022/12/15 11:14:47;;;;;;;20.02;8.65;;;;;;;5.09;100.00;100825.09;5063938;28;20105;-71
2022/12/15 11:17:18;;;;;;;12.98;8.50;;;;;;;5.24;100.00;100823.09;5051453;28;20469;-72
2022/12/15 11:19:54;;;;;;;14.32;8.25;;;;;;;4.84;100.00;100829.34;5038798;28;20381;-70
2022/12/15 11:22:30;;;;;;;20.60;9.32;;;;;;;4.18;100.00;100830.19;5038618;28;20025;-71
2022/12/15 11:25:02;;;;;;;15.65;8.88;;;;;;;3.86;100.00;100827.06;5047941;28;20074;-72
2022/12/15 11:27:32;;;;;;;18.95;8.82;;;;;;;3.62;100.00;100826.88;5050904;28;20447;-71
2022/12/15 11:30:21;;;;;;;16.98;8.98;;;;;;;3.45;100.00;100820.94;5037807;28;20104;-72
2022/12/15 11:32:52;;;;;;;20.17;9.45;;;;;;;3.39;100.00;100813.72;5040571;28;20044;-71
2022/12/15 11:35:24;;;;;;;15.25;7.95;;;;;;;3.67;100.00;100821.03;5047456;28;20060;-72
2022/12/15 11:37:55;;;;;;;16.02;8.02;;;;;;;4.17;100.00;100813.63;5037422;28;20033;-73
2022/12/15 11:40:27;;;;;;;17.70;8.23;;;;;;;4.63;100.00;100809.44;5030287;28;20078;-72
2022/12/15 11:43:04;;;;;;;16.58;8.05;;;;;;;4.97;100.00;100813.38;5039966;28;20388;-71
2022/12/15 11:45:59;;;;;;;11.35;7.20;;;;;;;5.52;100.00;100811.03;5044494;28;20086;-73
2022/12/15 11:48:42;;;;;;;15.18;6.70;;;;;;;5.99;100.00;100817.09;5057703;28;20054;-72
2022/12/15 11:51:07;;;;;;;10.90;6.40;;;;;;;6.29;100.00;100824.22;5056599;28;20492;-73
2022/12/15 11:53:57;;;;;;;11.10;5.55;;;;;;;6.58;100.00;100819.97;5052134;28;20028;-73
2022/12/15 11:56:38;;;;;;;12.13;5.78;;;;;;;7.04;100.00;100817.00;5046731;28;20029;-72
2022/12/15 11:59:31;;;;;;;10.77;5.55;;;;;;;7.45;100.00;100816.44;5042694;28;20389;-73
2022/12/15 12:02:14;;;;;;;8.45;4.85;;;;;;;7.43;100.00;100822.56;5048862;28;20406;-72
2022/12/15 12:04:58;;;;;;;11.48;5.07;;;;;;;7.18;100.00;100820.06;5052089;28;20032;-73
2022/12/15 12:07:47;;;;;;;7.82;3.65;;;;;;;7.06;100.00;100833.66;5055272;28;20025;-72
2022/12/15 12:10:34;;;;;;;9.75;4.28;;;;;;;6.44;100.00;100820.34;5056980;28;20074;-71
2022/12/15 12:13:11;;;;;;;8.85;4.45;;;;;;;6.48;100.00;100824.84;5042172;28;20036;-71
2022/12/15 12:16:03;;;;;;;7.30;4.25;;;;;;;6.82;100.00;100813.72;5063005;28;20029;-71
2022/12/15 12:18:35;;;;;;;8.77;3.90;;;;;;;7.34;100.00;100806.56;5046501;28;20071;-71
2022/12/15 12:21:12;;;;;;;7.38;3.97;;;;;;;7.53;100.00;100809.72;5054446;28;20025;-71
2022/12/15 12:23:51;;;;;;;6.10;3.58;;;;;;;7.93;100.00;100809.09;5054442;28;20483;-72
2022/12/15 12:26:24;;;;;;;5.88;3.45;;;;;;;8.05;100.00;100798.03;5054613;28;20352;-71
2022/12/15 12:29:01;;;;;;;9.27;3.47;;;;;;;8.46;100.00;100791.22;5049623;28;20021;-72
2022/12/15 12:31:42;;;;;;;8.85;3.83;;;;;;;8.45;100.00;100790.34;5037261;28;20037;-70
2022/12/15 12:34:16;;;;;;;8.63;3.20;;;;;;;8.44;96.66;100785.91;5036191;28;20033;-71
2022/12/15 12:36:43;;;;;;;7.18;3.22;;;;;;;8.67;95.40;100783.84;5033253;28;20052;-72
2022/12/15 12:39:19;;;;;;;7.05;3.25;;;;;;;9.04;96.21;100778.56;5051162;28;20407;-71
2022/12/15 12:41:59;;;;;;;6.57;2.55;;;;;;;9.36;88.38;100776.59;5054032;28;20021;-71
2022/12/15 12:44:35;;;;;;;12.27;3.20;;;;;;;9.75;82.53;100778.25;5055042;28;20024;-71
2022/12/15 12:47:12;;;;;;;5.97;2.60;;;;;;;10.00;75.90;100776.06;5049251;28;20048;-70
2022/12/15 12:50:00;;;;;;;5.90;2.22;;;;;;;10.15;72.84;100772.81;5062144;28;20036;-72
2022/12/15 12:52:29;;;;;;;10.07;4.13;;;;;;;10.63;72.39;100779.78;5052717;28;20047;-72
2022/12/15 12:55:03;;;;;;;6.47;2.55;;;;;;;11.07;68.47;100765.47;5064422;28;20380;-72
2022/12/15 12:57:29;;;;;;;8.48;2.28;;;;;;;10.45;65.92;100763.69;5059622;28;20486;-72
2022/12/15 13:00:04;;;;;;;6.65;2.28;;;;;;;9.73;70.48;100761.56;5073485;28;20101;-72
2022/12/15 13:02:30;;;;;;;7.90;1.83;;;;;;;9.48;74.68;100760.19;5044750;28;20029;-72
2022/12/15 13:05:20;;;;;;;2.78;1.70;;;;;;;8.82;75.14;100750.94;5062493;28;20099;-71
2022/12/15 13:08:04;;;;;;;6.30;1.65;;;;;;;8.98;78.73;100763.56;5051852;28;20112;-71
2022/12/15 13:10:51;;;;;;;8.20;1.73;;;;;;;9.38;74.11;100756.50;5052155;28;20491;-71
2022/12/15 13:13:30;;;;;;;6.18;1.48;;;;;;;9.41;69.13;100753.94;5053058;28;20453;-72
2022/12/15 13:16:24;;;;;;;8.95;1.35;;;;;;;8.63;71.37;100762.75;5052187;28;20452;-69
2022/12/15 13:19:03;;;;;;;6.50;1.27;;;;;;;8.70;71.97;100757.69;5038764;28;20040;-70
2022/12/15 13:21:40;;;;;;;12.38;1.65;;;;;;;8.62;71.82;100764.50;5054415;28;20471;-70
2022/12/15 13:24:24;;;;;;;7.55;1.42;;;;;;;7.99;69.68;100761.19;5053531;28;20029;-73
2022/12/15 13:26:49;;;;;;;4.78;1.20;;;;;;;7.83;73.75;100753.78;5065250;28;20512;-72
2022/12/15 13:29:19;;;;;;;8.63;1.27;;;;;;;7.42;81.66;100752.69;5039532;28;20037;-71
2022/12/15 13:31:49;;;;;;;3.03;0.88;;;;;;;7.49;83.48;100743.28;5033725;28;20059;-70
2022/12/15 13:34:21;;;;;;;10.02;1.17;;;;;;;7.84;74.49;100734.59;5049715;28;20035;-70
2022/12/15 13:36:49;;;;;;;4.78;1.00;;;;;;;7.45;72.88;100736.19;5051965;28;20040;-72
2022/12/15 13:39:17;;;;;;;12.98;1.52;;;;;;;7.43;76.11;100741.41;5046690;28;20378;-72
2022/12/15 13:41:43;;;;;;;9.80;1.00;;;;;;;7.56;72.67;100741.72;5046636;28;20055;-71
2022/12/15 13:44:31;;;;;;;12.32;1.75;;;;;;;7.09;72.26;100736.91;5047647;28;20072;-68
2022/12/15 13:47:11;;;;;;;7.53;0.90;;;;;;;6.92;76.16;100737.31;5046887;28;20045;-72
2022/12/15 13:50:29;;;;;;;7.80;1.13;;;;;;;7.06;75.81;100735.09;5051787;28;20084;-71
2022/12/15 13:52:56;;;;;;;3.78;1.05;;;;;;;7.55;70.72;100743.44;5033906;28;20063;-72
2022/12/15 13:55:37;;;;;;;3.45;0.90;;;;;;;7.47;66.74;100733.63;5052173;28;20029;-71